Terminal Aerodrome Forecast
Issued by NWS

Home | Current Version | Previous Version | Text Only | Print | Product List | Glossary On
Versions: 1 2 3 4 5 6 7 8 9 10 11 12 13 14 15 16 17 18 19 20 21 22 23 24
000
FTAK31 PAJN 220600 AAB
TAFAYA
TAF AMD
PAYA 220634Z 2207/2306 28010G20KT P6SM -RA BKN030 OVC040
      TEMPO 2207/2209 2SM -RA BR
     FM221000 16009KT P6SM -SHRA BKN025 OVC050 WS020/19025KT
     FM221700 11007KT P6SM -SHRA SCT025 OVC050
     FM230000 10005KT P6SM VCSH BKN040 OVC070
      AMD LTD TO CLD VIS AND WIND 2206/2210=

USA.gov is the U.S. government's official web portal to all federal, state and local government web resources and services.